TimeEDT,TemperatureF,Dew PointF,Humidity,Sea Level PressureIn,VisibilityMPH,Wind Direction,Wind SpeedMPH,Gust SpeedMPH,PrecipitationIn,Events,Conditions,WindDirDegrees,DateUTC
12:15 AM,59.0,55.4,88,29.74,10.0,Calm,Calm,-,N/A,,Scattered Clouds,0,2013-06-17 04:15:00
12:35 AM,57.2,55.4,94,29.74,10.0,South,3.5,-,N/A,,Clear,190,2013-06-17 04:35:00
12:55 AM,57.2,55.4,94,29.74,10.0,Calm,Calm,-,N/A,,Clear,0,2013-06-17 04:55:00
1:15 AM,57.2,55.4,94,29.74,5.0,Calm,Calm,-,N/A,,Clear,0,2013-06-17 05:15:00
1:35 AM,57.2,55.4,94,29.75,10.0,Calm,Calm,-,N/A,,Clear,0,2013-06-17 05:35:00
1:55 AM,55.4,53.6,94,29.75,4.0,SSW,3.5,-,N/A,,Clear,200,2013-06-17 05:55:00
2:15 AM,55.4,53.6,94,29.74,5.0,Calm,Calm,-,N/A,,Clear,0,2013-06-17 06:15:00
2:35 AM,55.4,53.6,94,29.75,6.0,Calm,Calm,-,N/A,,Clear,0,2013-06-17 06:35:00
2:55 AM,53.6,51.8,94,29.75,3.0,Calm,Calm,-,N/A,,Clear,0,2013-06-17 06:55:00
3:15 AM,53.6,51.8,94,29.74,1.2,Calm,Calm,-,N/A,,Clear,0,2013-06-17 07:15:00
3:35 AM,51.8,51.8,100,29.74,0.8,South,4.6,-,N/A,,Unknown,180,2013-06-17 07:35:00
3:55 AM,53.6,51.8,94,29.75,5.0,Calm,Calm,-,N/A,,Clear,0,2013-06-17 07:55:00
4:16 AM,51.8,50.0,94,29.76,2.5,Calm,Calm,-,N/A,,Clear,0,2013-06-17 08:16:00
4:35 AM,51.8,50.0,94,29.77,6.0,Calm,Calm,-,N/A,,Clear,0,2013-06-17 08:35:00
4:55 AM,51.8,51.8,100,29.78,7.0,Calm,Calm,-,N/A,,Clear,0,2013-06-17 08:55:00
5:15 AM,53.6,51.8,94,29.78,8.0,Calm,Calm,-,N/A,,Clear,0,2013-06-17 09:15:00
5:35 AM,50.0,48.2,94,29.80,10.0,Calm,Calm,-,N/A,,Clear,0,2013-06-17 09:35:00
5:55 AM,51.8,50.0,94,29.80,8.0,Calm,Calm,-,N/A,,Clear,0,2013-06-17 09:55:00
6:15 AM,53.6,51.8,94,29.81,9.0,South,3.5,-,N/A,,Clear,170,2013-06-17 10:15:00
6:35 AM,55.4,55.4,100,29.81,9.0,Calm,Calm,-,N/A,,Clear,0,2013-06-17 10:35:00
6:55 AM,59.0,55.4,88,29.81,10.0,Calm,Calm,-,N/A,,Clear,0,2013-06-17 10:55:00
7:15 AM,60.8,57.2,88,29.81,10.0,Calm,Calm,-,N/A,,Clear,0,2013-06-17 11:15:00
7:35 AM,62.6,57.2,82,29.82,10.0,SW,8.1,-,N/A,,Clear,230,2013-06-17 11:35:00
7:55 AM,64.4,55.4,73,29.82,10.0,SW,6.9,-,N/A,,Clear,230,2013-06-17 11:55:00
8:15 AM,66.2,55.4,68,29.83,10.0,WSW,5.8,-,N/A,,Clear,250,2013-06-17 12:15:00
8:35 AM,66.2,55.4,68,29.83,10.0,West,6.9,-,N/A,,Clear,260,2013-06-17 12:35:00
8:55 AM,68.0,57.2,68,29.83,10.0,SW,5.8,-,N/A,,Clear,230,2013-06-17 12:55:00
9:15 AM,69.8,57.2,64,29.82,10.0,West,6.9,-,N/A,,Clear,260,2013-06-17 13:15:00
9:35 AM,69.8,57.2,64,29.81,10.0,WSW,4.6,-,N/A,,Clear,240,2013-06-17 13:35:00
9:55 AM,71.6,57.2,60,29.81,10.0,West,6.9,-,N/A,,Clear,280,2013-06-17 13:55:00
10:15 AM,73.4,57.2,57,29.80,10.0,WSW,8.1,-,N/A,,Clear,240,2013-06-17 14:15:00
10:35 AM,75.2,53.6,47,29.80,10.0,West,9.2,-,N/A,,Clear,260,2013-06-17 14:35:00
10:55 AM,75.2,53.6,47,29.80,10.0,West,11.5,16.1,N/A,,Clear,280,2013-06-17 14:55:00
11:15 AM,75.2,55.4,50,29.80,10.0,West,11.5,18.4,N/A,,Scattered Clouds,260,2013-06-17 15:15:00
11:35 AM,77.0,55.4,47,29.79,10.0,WSW,10.4,-,N/A,,Partly Cloudy,240,2013-06-17 15:35:00
11:55 AM,75.2,55.4,50,29.79,10.0,WSW,10.4,16.1,N/A,,Mostly Cloudy,250,2013-06-17 15:55:00
12:16 PM,75.2,53.6,47,29.79,10.0,SW,9.2,-,N/A,,Mostly Cloudy,230,2013-06-17 16:16:00
12:35 PM,78.8,53.6,42,29.78,10.0,SW,13.8,-,N/A,,Mostly Cloudy,230,2013-06-17 16:35:00
12:55 PM,78.8,53.6,42,29.78,10.0,WSW,12.7,17.3,N/A,,Partly Cloudy,240,2013-06-17 16:55:00
1:15 PM,78.8,53.6,42,29.78,10.0,WSW,13.8,-,N/A,,Scattered Clouds,240,2013-06-17 17:15:00
1:35 PM,78.8,53.6,42,29.77,10.0,WSW,17.3,26.5,N/A,,Scattered Clouds,240,2013-06-17 17:35:00
1:55 PM,78.8,53.6,42,29.77,10.0,WSW,12.7,19.6,N/A,,Mostly Cloudy,250,2013-06-17 17:55:00
2:15 PM,75.2,55.4,50,29.78,10.0,West,8.1,-,N/A,,Overcast,280,2013-06-17 18:15:00
2:35 PM,75.2,55.4,50,29.77,10.0,NW,4.6,-,N/A,,Mostly Cloudy,310,2013-06-17 18:35:00
2:55 PM,73.4,57.2,57,29.79,8.0,NNW,5.8,-,N/A,,Mostly Cloudy,330,2013-06-17 18:55:00
3:15 PM,66.2,57.2,73,29.83,7.0,WNW,15.0,23.0,N/A,,Mostly Cloudy,290,2013-06-17 19:15:00
3:35 PM,64.4,60.8,88,29.81,10.0,North,4.6,-,N/A,,Mostly Cloudy,360,2013-06-17 19:35:00
3:55 PM,66.2,60.8,83,29.80,10.0,Calm,Calm,-,N/A,,Mostly Cloudy,0,2013-06-17 19:55:00
4:15 PM,68.0,60.8,78,29.80,10.0,WNW,3.5,-,N/A,,Mostly Cloudy,290,2013-06-17 20:15:00
4:35 PM,66.2,62.6,88,29.82,10.0,West,6.9,-,N/A,,Mostly Cloudy,280,2013-06-17 20:35:00
4:55 PM,66.2,57.2,73,29.81,10.0,NW,9.2,-,N/A,,Mostly Cloudy,320,2013-06-17 20:55:00
5:15 PM,64.4,59.0,83,29.80,10.0,WSW,5.8,-,N/A,,Mostly Cloudy,250,2013-06-17 21:15:00
5:35 PM,64.4,60.8,88,29.79,10.0,West,4.6,-,N/A,,Scattered Clouds,280,2013-06-17 21:35:00
5:55 PM,66.2,60.8,83,29.81,10.0,West,6.9,-,N/A,,Clear,280,2013-06-17 21:55:00
6:16 PM,66.2,60.8,83,29.81,10.0,West,4.6,-,N/A,,Clear,270,2013-06-17 22:16:00
6:35 PM,66.2,60.8,83,29.81,10.0,WSW,4.6,-,N/A,,Clear,250,2013-06-17 22:35:00
6:55 PM,66.2,60.8,83,29.82,10.0,Calm,Calm,-,N/A,,Clear,0,2013-06-17 22:55:00
7:15 PM,66.2,60.8,83,29.82,10.0,SSW,4.6,-,N/A,,Scattered Clouds,200,2013-06-17 23:15:00
7:35 PM,64.4,59.0,83,29.82,10.0,Calm,Calm,-,N/A,,Scattered Clouds,0,2013-06-17 23:35:00
7:55 PM,66.2,60.8,83,29.83,10.0,Calm,Calm,-,N/A,,Mostly Cloudy,0,2013-06-17 23:55:00
8:15 PM,64.4,60.8,88,29.84,10.0,South,3.5,-,N/A,,Overcast,170,2013-06-18 00:15:00
8:35 PM,64.4,60.8,88,29.85,10.0,South,6.9,-,N/A,,Overcast,180,2013-06-18 00:35:00
8:55 PM,62.6,60.8,94,29.85,10.0,South,3.5,-,N/A,,Overcast,170,2013-06-18 00:55:00
9:15 PM,62.6,60.8,94,29.86,10.0,Calm,Calm,-,N/A,,Overcast,0,2013-06-18 01:15:00
9:35 PM,62.6,60.8,94,29.87,10.0,SSE,3.5,-,N/A,,Overcast,150,2013-06-18 01:35:00
9:55 PM,62.6,59.0,88,29.87,10.0,SSE,3.5,-,N/A,,Mostly Cloudy,150,2013-06-18 01:55:00
10:15 PM,60.8,59.0,94,29.88,10.0,Calm,Calm,-,N/A,,Mostly Cloudy,0,2013-06-18 02:15:00
10:35 PM,60.8,59.0,94,29.88,9.0,Calm,Calm,-,N/A,,Overcast,0,2013-06-18 02:35:00
10:55 PM,60.8,59.0,94,29.87,10.0,Calm,Calm,-,N/A,,Overcast,0,2013-06-18 02:55:00
11:15 PM,60.8,57.2,88,29.87,10.0,Calm,Calm,-,N/A,,Overcast,0,2013-06-18 03:15:00
11:35 PM,60.8,57.2,88,29.87,10.0,Calm,Calm,-,N/A,,Overcast,0,2013-06-18 03:35:00
11:55 PM,60.8,59.0,94,29.87,10.0,Calm,Calm,-,N/A,,Overcast,0,2013-06-18 03:55:00